Time;durP1;ratioP1;P1;durP2;ratioP2;P2;SDS_P1;SDS_P2;PMS_P1;PMS_P2;Temp;Humidity;BMP_temperature;BMP_pressure;BME280_temperature;BME280_humidity;BME280_pressure;Samples;Min_cycle;Max_cycle;Signal;HPM_P1;HPM_P2
2023/12/03 00:00:08;;;;;;;0.83;0.83;;;-2.30;1.00;;;;;;5022471;28;20595;-83
2023/12/03 00:02:36;;;;;;;0.80;0.80;;;-2.30;9.40;;;;;;5038890;28;20179;-83
2023/12/03 00:05:02;;;;;;;0.90;0.90;;;-2.30;15.10;;;;;;5037018;28;20237;-83
2023/12/03 00:07:29;;;;;;;0.80;0.80;;;-2.20;10.90;;;;;;5038787;28;20175;-83
2023/12/03 00:09:55;;;;;;;1.00;1.00;;;-2.10;7.50;;;;;;5038606;28;20266;-84
2023/12/03 00:12:21;;;;;;;0.90;0.90;;;-2.20;1.00;;;;;;5039229;28;20187;-83
2023/12/03 00:14:47;;;;;;;0.90;0.90;;;-2.30;1.00;;;;;;5038083;28;20207;-84
2023/12/03 00:17:12;;;;;;;0.90;0.90;;;-2.30;1.00;;;;;;5039678;28;20684;-83
2023/12/03 00:19:39;;;;;;;1.00;1.00;;;-2.40;1.00;;;;;;5039082;28;20229;-83
2023/12/03 00:22:05;;;;;;;0.90;0.90;;;-2.40;1.00;;;;;;5039960;28;20191;-83
2023/12/03 00:24:31;;;;;;;1.00;1.00;;;-2.40;1.00;;;;;;5040510;28;20175;-83
2023/12/03 00:26:56;;;;;;;0.90;0.90;;;-2.40;1.00;;;;;;5050772;28;20219;-81
2023/12/03 00:29:22;;;;;;;1.00;1.00;;;-2.40;1.00;;;;;;5057205;28;20223;-82
2023/12/03 00:31:47;;;;;;;0.90;0.90;;;-2.50;1.00;;;;;;5057304;28;20164;-81
2023/12/03 00:34:13;;;;;;;1.10;1.10;;;-2.40;1.00;;;;;;5057445;28;20168;-83
2023/12/03 00:36:39;;;;;;;0.80;0.80;;;-2.40;1.00;;;;;;5041099;28;20200;-83
2023/12/03 00:39:06;;;;;;;1.00;1.00;;;-2.30;1.00;;;;;;5033704;28;20278;-83
2023/12/03 00:41:31;;;;;;;0.90;0.90;;;-2.40;1.00;;;;;;5048536;28;20180;-83
2023/12/03 00:43:57;;;;;;;1.00;1.00;;;-2.40;1.00;;;;;;5033015;28;20180;-82
2023/12/03 00:46:23;;;;;;;0.90;0.90;;;-2.40;1.00;;;;;;5032425;28;20252;-82
2023/12/03 00:48:48;;;;;;;0.80;0.80;;;-2.50;1.00;;;;;;5032785;28;20203;-83
2023/12/03 00:51:14;;;;;;;0.80;0.80;;;-2.40;1.00;;;;;;5031539;28;20175;-83
2023/12/03 00:53:44;;;;;;;0.80;0.80;;;-2.60;1.00;;;;;;5034538;28;20183;-82
2023/12/03 00:56:10;;;;;;;1.00;1.00;;;-2.60;17.30;;;;;;5016533;28;20692;-83
2023/12/03 00:58:35;;;;;;;0.80;0.80;;;-2.50;49.80;;;;;;5048600;28;20184;-83
2023/12/03 01:01:01;;;;;;;0.90;0.90;;;-2.50;70.70;;;;;;5037223;28;20179;-83
2023/12/03 01:03:28;;;;;;;0.90;0.90;;;-2.10;71.50;;;;;;5035566;28;20716;-83
2023/12/03 01:05:54;;;;;;;0.90;0.90;;;-2.40;49.60;;;;;;5049779;28;20188;-84
2023/12/03 01:08:19;;;;;;;0.80;0.80;;;-2.40;36.10;;;;;;5035572;28;20236;-83
2023/12/03 01:10:45;;;;;;;0.90;0.90;;;-2.50;48.50;;;;;;5035294;28;20682;-82
2023/12/03 01:13:11;;;;;;;0.90;0.90;;;-2.50;61.40;;;;;;5036119;28;20290;-82
2023/12/03 01:15:36;;;;;;;0.90;0.90;;;-2.50;63.10;;;;;;5034771;28;20202;-83
2023/12/03 01:18:02;;;;;;;0.90;0.90;;;-2.30;83.30;;;;;;5037427;28;20190;-83
2023/12/03 01:20:27;;;;;;;0.90;0.90;;;-2.40;74.70;;;;;;5055140;28;20234;-83
2023/12/03 01:22:54;;;;;;;1.00;1.00;;;-2.50;65.20;;;;;;5039859;28;20183;-84
2023/12/03 01:25:19;;;;;;;1.00;1.00;;;-2.40;81.10;;;;;;5039028;28;20191;-83
2023/12/03 01:27:45;;;;;;;0.90;0.90;;;-2.40;85.10;;;;;;5039969;28;20175;-84
2023/12/03 01:30:11;;;;;;;0.90;0.90;;;-2.50;91.80;;;;;;5038572;28;20550;-83
2023/12/03 01:32:36;;;;;;;0.90;0.90;;;-2.50;92.60;;;;;;5054081;28;20195;-84
2023/12/03 01:35:02;;;;;;;0.90;0.90;;;-2.50;90.10;;;;;;5038011;28;20183;-83
2023/12/03 01:37:28;;;;;;;1.00;1.00;;;-2.50;92.40;;;;;;5038726;28;20187;-83
2023/12/03 01:39:53;;;;;;;1.00;1.00;;;-2.60;98.50;;;;;;5054085;28;20195;-82
2023/12/03 01:42:20;;;;;;;0.97;0.97;;;-2.50;58.10;;;;;;5056505;28;20187;-83
2023/12/03 01:44:45;;;;;;;0.90;0.90;;;-2.70;1.00;;;;;;5039296;28;20179;-83
2023/12/03 01:47:13;;;;;;;0.90;0.90;;;-2.70;1.00;;;;;;5039570;28;20286;-83
2023/12/03 01:49:40;;;;;;;1.00;1.00;;;-2.80;1.00;;;;;;5039094;28;20717;-83
2023/12/03 01:52:06;;;;;;;1.03;1.03;;;-2.80;99.90;;;;;;5039287;28;20199;-83
2023/12/03 01:54:35;;;;;;;1.00;1.00;;;-2.80;1.00;;;;;;5021351;28;20179;-82
2023/12/03 01:57:01;;;;;;;1.00;1.00;;;-2.90;99.90;;;;;;5038087;28;20342;-82
2023/12/03 01:59:27;;;;;;;0.90;0.90;;;-2.90;1.00;;;;;;5039684;28;20206;-83
2023/12/03 02:01:53;;;;;;;0.90;0.90;;;-2.80;1.00;;;;;;5039588;28;20176;-83
2023/12/03 02:04:18;;;;;;;0.90;0.90;;;-2.80;1.00;;;;;;5040039;28;20178;-83
2023/12/03 02:06:44;;;;;;;0.90;0.90;;;-2.80;1.00;;;;;;5043364;28;20192;-83
2023/12/03 02:09:09;;;;;;;0.93;0.93;;;-2.80;1.00;;;;;;5049737;28;20200;-82
2023/12/03 02:11:35;;;;;;;0.90;0.90;;;-2.80;1.00;;;;;;5021545;28;20314;-84
2023/12/03 02:14:02;;;;;;;1.00;1.00;;;-2.80;1.00;;;;;;5037182;28;20175;-83
2023/12/03 02:16:30;;;;;;;0.90;0.90;;;-2.90;1.00;;;;;;5036861;28;20719;-82
2023/12/03 02:18:56;;;;;;;1.00;1.00;;;-2.80;1.00;;;;;;5038341;28;20673;-84
2023/12/03 02:21:21;;;;;;;0.90;0.90;;;-2.90;1.00;;;;;;5038158;28;20214;-84
2023/12/03 02:23:47;;;;;;;0.90;0.90;;;-2.90;1.00;;;;;;5037921;28;20230;-84
2023/12/03 02:26:13;;;;;;;0.90;0.90;;;-2.90;1.00;;;;;;5037627;28;20203;-84
2023/12/03 02:28:38;;;;;;;0.90;0.90;;;-3.00;1.00;;;;;;5037073;28;20271;-83
2023/12/03 02:31:04;;;;;;;1.00;1.00;;;-3.00;1.00;;;;;;5039469;28;20176;-84
2023/12/03 02:33:30;;;;;;;0.80;0.80;;;-3.00;1.00;;;;;;5039393;28;20183;-84
2023/12/03 02:35:56;;;;;;;0.80;0.80;;;-3.00;1.00;;;;;;5038257;28;20563;-83
2023/12/03 02:38:21;;;;;;;0.87;0.87;;;-3.00;1.00;;;;;;5039045;28;20188;-84
2023/12/03 02:40:47;;;;;;;0.90;0.90;;;-3.00;1.00;;;;;;5038728;28;20283;-84
2023/12/03 02:43:12;;;;;;;0.90;0.90;;;-2.90;99.90;;;;;;5039290;28;20179;-84
2023/12/03 02:45:38;;;;;;;1.07;1.07;;;-3.00;99.90;;;;;;5038796;28;20187;-84
2023/12/03 02:48:04;;;;;;;0.90;0.90;;;-3.00;99.90;;;;;;5039400;28;20199;-84
2023/12/03 02:50:29;;;;;;;1.00;1.00;;;-3.00;99.90;;;;;;5039322;28;20203;-83
2023/12/03 02:52:55;;;;;;;1.00;1.00;;;-3.00;99.90;;;;;;5039979;28;20183;-83
2023/12/03 02:55:20;;;;;;;0.90;0.90;;;-2.90;99.90;;;;;;5039621;28;20172;-84
2023/12/03 02:57:46;;;;;;;0.97;0.97;;;-3.00;99.90;;;;;;5039830;28;20612;-84
2023/12/03 03:00:12;;;;;;;0.90;0.90;;;-3.00;99.90;;;;;;5040426;28;20176;-83
2023/12/03 03:02:38;;;;;;;0.90;0.90;;;-3.00;99.90;;;;;;5039864;28;20178;-82
2023/12/03 03:05:05;;;;;;;0.90;0.90;;;-3.00;99.90;;;;;;5040326;28;20225;-84
2023/12/03 03:07:30;;;;;;;1.03;1.03;;;-3.00;99.90;;;;;;5040000;28;20183;-84
2023/12/03 03:09:56;;;;;;;0.90;0.90;;;-2.90;99.90;;;;;;5040650;28;20204;-83
2023/12/03 03:12:21;;;;;;;0.90;0.90;;;-2.90;99.90;;;;;;5040680;28;20172;-85
2023/12/03 03:14:47;;;;;;;0.90;0.90;;;-3.00;1.00;;;;;;5055715;28;20203;-84
2023/12/03 03:17:12;;;;;;;0.90;0.90;;;-3.00;99.90;;;;;;5055978;28;20200;-85
2023/12/03 03:19:42;;;;;;;0.97;0.97;;;-3.00;99.90;;;;;;5041180;28;20204;-83
2023/12/03 03:22:07;;;;;;;1.00;1.00;;;-2.90;99.90;;;;;;5040916;28;20182;-85
2023/12/03 03:24:33;;;;;;;0.90;0.90;;;-3.00;99.90;;;;;;5047469;28;20175;-84
2023/12/03 03:26:58;;;;;;;0.90;0.90;;;-2.90;1.00;;;;;;5055851;28;20199;-82
2023/12/03 03:29:25;;;;;;;1.00;1.00;;;-3.00;99.90;;;;;;5058290;28;20234;-82
2023/12/03 03:31:50;;;;;;;1.00;1.00;;;-2.90;99.90;;;;;;5057843;28;20176;-85
2023/12/03 03:34:16;;;;;;;1.00;1.00;;;-3.10;1.00;;;;;;5045102;28;20171;-84
2023/12/03 03:36:41;;;;;;;1.00;1.00;;;-3.10;1.00;;;;;;5043904;28;20932;-83
2023/12/03 03:39:07;;;;;;;1.00;1.00;;;-3.00;1.00;;;;;;5040577;28;20263;-83
2023/12/03 03:41:32;;;;;;;0.97;0.97;;;-3.00;1.00;;;;;;5042217;28;20196;-84
2023/12/03 03:43:58;;;;;;;0.90;0.90;;;-2.90;1.00;;;;;;5057825;28;20175;-84
2023/12/03 03:46:23;;;;;;;0.80;0.80;;;-3.10;1.00;;;;;;5039458;28;20242;-84
2023/12/03 03:48:49;;;;;;;0.90;0.90;;;-2.90;1.00;;;;;;5038276;28;20194;-84
2023/12/03 03:51:14;;;;;;;1.00;1.00;;;-2.90;1.00;;;;;;5038571;28;20262;-84
2023/12/03 03:53:40;;;;;;;0.90;0.90;;;-2.90;1.00;;;;;;5040184;28;20172;-85
2023/12/03 03:56:08;;;;;;;0.90;0.90;;;-3.00;1.00;;;;;;5038315;28;20215;-84
2023/12/03 03:58:33;;;;;;;1.00;1.00;;;-2.90;1.00;;;;;;5039364;28;20199;-84
2023/12/03 04:00:59;;;;;;;1.00;1.00;;;-2.80;1.00;;;;;;5039668;28;20238;-85
2023/12/03 04:03:25;;;;;;;0.90;0.90;;;-2.80;1.00;;;;;;5037903;28;20249;-84
2023/12/03 04:05:50;;;;;;;0.90;0.90;;;-2.90;1.00;;;;;;5036896;28;20214;-83
2023/12/03 04:08:16;;;;;;;0.90;0.90;;;-2.90;1.00;;;;;;5036889;28;20245;-84
2023/12/03 04:10:41;;;;;;;0.90;0.90;;;-2.90;1.00;;;;;;5037093;28;20219;-84
2023/12/03 04:13:07;;;;;;;0.90;0.90;;;-2.80;1.00;;;;;;5037121;28;20598;-83
2023/12/03 04:15:32;;;;;;;1.00;1.00;;;-2.90;1.00;;;;;;5037231;28;20222;-83
2023/12/03 04:17:58;;;;;;;0.90;0.90;;;-3.00;1.00;;;;;;5043368;28;20195;-82
2023/12/03 04:20:23;;;;;;;0.90;0.90;;;-3.20;1.00;;;;;;5038420;28;20175;-82
2023/12/03 04:22:49;;;;;;;1.00;1.00;;;-3.30;1.00;;;;;;5056109;28;20179;-81
2023/12/03 04:25:14;;;;;;;0.90;0.90;;;-3.40;1.00;;;;;;5057052;28;20159;-82
2023/12/03 04:27:41;;;;;;;0.87;0.87;;;-3.50;1.00;;;;;;5057615;28;20164;-82
2023/12/03 04:30:07;;;;;;;0.90;0.90;;;-3.70;1.00;;;;;;5057823;28;20210;-81
2023/12/03 04:32:35;;;;;;;1.00;1.00;;;-3.80;1.00;;;;;;5052903;28;20188;-84
2023/12/03 04:35:00;;;;;;;0.97;0.97;;;-3.80;1.00;;;;;;5040602;28;20182;-84
2023/12/03 04:37:26;;;;;;;1.10;1.10;;;-4.10;1.00;;;;;;5038609;28;20251;-84
2023/12/03 04:39:51;;;;;;;1.00;1.00;;;-4.10;1.00;;;;;;5038731;28;20625;-84
2023/12/03 04:42:17;;;;;;;1.00;1.00;;;-4.20;1.00;;;;;;5038597;28;20610;-83
2023/12/03 04:44:43;;;;;;;0.80;0.80;;;-4.20;1.00;;;;;;5037875;28;20593;-84
2023/12/03 04:47:08;;;;;;;0.90;0.90;;;-4.40;1.00;;;;;;5053442;28;20191;-84
2023/12/03 04:49:34;;;;;;;0.93;0.93;;;-4.60;1.00;;;;;;5038838;28;20275;-84
2023/12/03 04:51:59;;;;;;;1.00;1.00;;;-4.60;1.00;;;;;;5037780;28;20547;-84
2023/12/03 04:54:25;;;;;;;1.00;1.00;;;-4.70;1.00;;;;;;5038533;28;20180;-83
2023/12/03 04:56:50;;;;;;;1.10;1.10;;;-4.90;1.00;;;;;;5038071;28;20218;-84
2023/12/03 04:59:16;;;;;;;1.00;1.00;;;-5.30;1.00;;;;;;5037994;28;20235;-83
2023/12/03 05:01:42;;;;;;;1.07;1.07;;;-5.60;1.00;;;;;;5038297;28;20176;-83
2023/12/03 05:04:07;;;;;;;1.00;1.00;;;-5.70;1.00;;;;;;5037529;28;20658;-85
2023/12/03 05:06:33;;;;;;;0.90;0.90;;;-5.90;1.00;;;;;;5037385;28;20195;-84
2023/12/03 05:08:59;;;;;;;0.90;0.90;;;-5.80;1.00;;;;;;5037794;28;20203;-84
2023/12/03 05:11:24;;;;;;;0.97;0.97;;;-5.80;1.00;;;;;;5037170;28;20183;-84
2023/12/03 05:13:50;;;;;;;1.00;1.00;;;-5.90;1.00;;;;;;5037912;28;20207;-84
2023/12/03 05:16:15;;;;;;;0.93;0.93;;;-6.10;1.00;;;;;;5034766;28;20195;-83
2023/12/03 05:18:41;;;;;;;1.00;1.00;;;-6.40;1.00;;;;;;5049828;28;20175;-84
2023/12/03 05:21:07;;;;;;;1.00;1.00;;;-6.40;1.00;;;;;;5036072;28;20172;-83
2023/12/03 05:23:32;;;;;;;0.90;0.90;;;-6.30;1.00;;;;;;5035848;28;20176;-84
2023/12/03 05:25:58;;;;;;;0.97;0.97;;;-6.30;1.00;;;;;;5035021;28;20188;-83
2023/12/03 05:28:24;;;;;;;1.00;1.00;;;-6.10;1.00;;;;;;5034339;28;20599;-82
2023/12/03 05:30:49;;;;;;;1.00;1.00;;;-6.10;1.00;;;;;;5035037;28;20290;-83
2023/12/03 05:33:15;;;;;;;1.00;1.00;;;-6.30;1.00;;;;;;5036825;28;20661;-82
2023/12/03 05:35:41;;;;;;;1.00;1.00;;;-6.20;1.00;;;;;;5036448;28;20221;-85
2023/12/03 05:38:07;;;;;;;0.90;0.90;;;-6.10;1.00;;;;;;5051241;28;20215;-82
2023/12/03 05:40:32;;;;;;;0.90;0.90;;;-6.30;1.00;;;;;;5051132;28;20253;-84
2023/12/03 05:42:59;;;;;;;1.00;1.00;;;-6.30;1.40;;;;;;5040453;28;20180;-84
2023/12/03 05:45:24;;;;;;;0.90;0.90;;;-6.20;9.10;;;;;;5038163;28;20196;-83
2023/12/03 05:47:50;;;;;;;0.90;0.90;;;-6.40;13.10;;;;;;5039686;28;20187;-83
2023/12/03 05:50:15;;;;;;;1.10;1.10;;;-6.50;29.70;;;;;;5055233;28;20200;-83
2023/12/03 05:52:41;;;;;;;0.90;0.90;;;-6.60;49.40;;;;;;5039528;28;20183;-83
2023/12/03 05:55:07;;;;;;;1.00;1.00;;;-6.40;70.10;;;;;;5039581;28;20199;-83
2023/12/03 05:57:32;;;;;;;0.87;0.87;;;-6.40;79.50;;;;;;5041331;28;20180;-83
2023/12/03 05:59:58;;;;;;;1.00;1.00;;;-6.40;94.50;;;;;;5041219;28;20278;-84
2023/12/03 06:02:23;;;;;;;1.00;1.00;;;-6.40;98.80;;;;;;5045714;28;20202;-81
2023/12/03 06:04:50;;;;;;;0.90;0.90;;;-6.40;99.90;;;;;;5075033;28;20191;-81
2023/12/03 06:07:15;;;;;;;0.90;0.90;;;-6.60;99.90;;;;;;5059193;28;20184;-81
2023/12/03 06:09:41;;;;;;;0.90;0.90;;;-6.70;99.90;;;;;;5059711;28;20204;-81
2023/12/03 06:12:07;;;;;;;0.90;0.90;;;-6.50;99.90;;;;;;5050924;28;20267;-83
2023/12/03 06:14:32;;;;;;;1.00;1.00;;;-6.50;99.90;;;;;;5041993;28;20218;-84
2023/12/03 06:16:58;;;;;;;1.00;1.00;;;-6.40;99.90;;;;;;5041739;28;20192;-82
2023/12/03 06:19:23;;;;;;;1.03;1.03;;;-6.40;99.90;;;;;;5041903;28;20190;-83
2023/12/03 06:21:49;;;;;;;0.90;0.90;;;-6.50;96.20;;;;;;5042137;28;20179;-84
2023/12/03 06:24:15;;;;;;;1.10;1.10;;;-6.50;80.00;;;;;;5041501;28;20171;-83
2023/12/03 06:26:41;;;;;;;1.00;1.00;;;-6.50;87.10;;;;;;5039633;28;20196;-82
2023/12/03 06:29:07;;;;;;;1.00;1.00;;;-6.50;94.80;;;;;;5022455;28;20196;-82
2023/12/03 06:31:33;;;;;;;1.00;1.00;;;-6.40;99.90;;;;;;5038627;28;20569;-82
2023/12/03 06:33:59;;;;;;;0.97;0.97;;;-6.50;99.90;;;;;;5039889;28;20176;-82
2023/12/03 06:36:25;;;;;;;1.00;1.00;;;-6.80;99.90;;;;;;5040154;28;20246;-83
2023/12/03 06:38:51;;;;;;;0.90;0.90;;;-7.00;99.90;;;;;;5040768;28;20657;-86
2023/12/03 06:41:17;;;;;;;0.97;0.97;;;-7.00;99.90;;;;;;5040865;28;20170;-85
2023/12/03 06:43:42;;;;;;;0.97;0.97;;;-6.90;99.90;;;;;;5042067;28;20226;-84
2023/12/03 06:46:09;;;;;;;0.90;0.90;;;-6.70;81.90;;;;;;5047449;28;20195;-82
2023/12/03 06:48:35;;;;;;;0.90;0.90;;;-6.90;66.10;;;;;;5048400;28;20160;-82
2023/12/03 06:51:00;;;;;;;0.90;0.90;;;-7.00;99.90;;;;;;5048358;28;20198;-83
2023/12/03 06:53:26;;;;;;;0.90;0.90;;;-7.00;99.90;;;;;;5047881;28;20183;-81
2023/12/03 06:55:51;;;;;;;1.00;1.00;;;-6.90;99.90;;;;;;5057474;28;20199;-82
2023/12/03 06:58:17;;;;;;;0.90;0.90;;;-7.20;68.10;;;;;;5058351;28;20200;-82
2023/12/03 07:00:42;;;;;;;0.80;0.80;;;-7.30;1.00;;;;;;5055191;28;20204;-84
2023/12/03 07:03:08;;;;;;;0.90;0.90;;;-7.50;1.00;;;;;;5046588;28;20183;-81
2023/12/03 07:05:34;;;;;;;0.90;0.90;;;-7.70;1.00;;;;;;5048160;28;20549;-81
2023/12/03 07:08:00;;;;;;;0.90;0.90;;;-7.60;1.00;;;;;;5028975;28;20270;-82
2023/12/03 07:10:25;;;;;;;0.90;0.90;;;-7.60;1.00;;;;;;5051403;28;20211;-83
2023/12/03 07:12:51;;;;;;;0.90;0.90;;;-7.50;1.00;;;;;;5052682;28;20191;-81
2023/12/03 07:15:17;;;;;;;1.00;1.00;;;-7.40;1.00;;;;;;5050464;28;20575;-80
2023/12/03 07:17:42;;;;;;;0.90;0.90;;;-7.10;3.90;;;;;;5039987;28;20174;-81
2023/12/03 07:20:08;;;;;;;0.80;0.80;;;-7.00;7.70;;;;;;5044774;28;20935;-80
2023/12/03 07:22:34;;;;;;;0.80;0.80;;;-6.60;17.70;;;;;;5066149;28;20320;-80
2023/12/03 07:25:01;;;;;;;0.97;0.97;;;-6.10;1.00;;;;;;5067830;28;20190;-83
2023/12/03 07:27:26;;;;;;;0.90;0.90;;;-5.60;1.00;;;;;;5065837;28;20221;-81
2023/12/03 07:29:55;;;;;;;0.90;0.90;;;-5.20;1.00;;;;;;5052270;28;20214;-82
2023/12/03 07:32:26;;;;;;;0.87;0.87;;;-4.90;1.00;;;;;;5059751;28;20240;-84
2023/12/03 07:34:52;;;;;;;1.00;1.00;;;-4.60;1.00;;;;;;5051671;28;20175;-83
2023/12/03 07:37:18;;;;;;;0.90;0.90;;;-4.20;99.90;;;;;;5049562;28;20244;-84
2023/12/03 07:39:43;;;;;;;1.00;1.00;;;-3.70;1.00;;;;;;5029839;28;20222;-83
2023/12/03 07:42:09;;;;;;;0.80;0.80;;;-3.20;99.90;;;;;;5043751;28;20229;-81
2023/12/03 07:44:34;;;;;;;0.90;0.90;;;-2.80;99.90;;;;;;5028832;28;20241;-81
2023/12/03 07:47:01;;;;;;;0.90;0.90;;;-2.60;1.00;;;;;;5048367;28;20203;-82
2023/12/03 07:49:26;;;;;;;0.80;0.80;;;-2.40;99.90;;;;;;5042279;28;20211;-82
2023/12/03 07:51:52;;;;;;;0.80;0.80;;;-2.30;99.90;;;;;;5025280;28;20210;-82
2023/12/03 07:54:18;;;;;;;0.77;0.77;;;-2.30;99.90;;;;;;5041309;28;20168;-82
2023/12/03 07:56:44;;;;;;;0.67;0.67;;;-1.60;99.90;;;;;;5046415;28;20195;-84
2023/12/03 07:59:09;;;;;;;0.63;0.63;;;-1.30;99.90;;;;;;5055942;28;20168;-82
2023/12/03 08:01:38;;;;;;;0.70;0.70;;;-0.70;1.00;;;;;;5049942;28;20267;-81
2023/12/03 08:04:04;;;;;;;0.67;0.67;;;-0.40;1.00;;;;;;5042085;28;20175;-82
2023/12/03 08:06:30;;;;;;;0.70;0.70;;;0.00;1.00;;;;;;5035781;28;20210;-82
2023/12/03 08:08:57;;;;;;;0.60;0.60;;;0.00;1.00;;;;;;5033035;28;20172;-82
2023/12/03 08:11:23;;;;;;;0.60;0.60;;;0.00;1.00;;;;;;5038311;28;20223;-82
2023/12/03 08:13:50;;;;;;;0.67;0.67;;;0.60;1.00;;;;;;5051070;28;20187;-82
2023/12/03 08:16:16;;;;;;;0.53;0.53;;;0.80;1.00;;;;;;5053342;28;20204;-83
2023/12/03 08:18:42;;;;;;;0.40;0.40;;;0.90;1.00;;;;;;5045998;28;20179;-82
2023/12/03 08:21:09;;;;;;;0.43;0.43;;;0.90;1.00;;;;;;5048706;28;20187;-82
2023/12/03 08:23:35;;;;;;;0.47;0.47;;;1.20;1.00;;;;;;5069943;28;20272;-82
2023/12/03 08:26:02;;;;;;;0.50;0.50;;;1.80;1.00;;;;;;5055651;28;20836;-83
2023/12/03 08:28:28;;;;;;;0.50;0.50;;;1.90;1.00;;;;;;5044618;28;20176;-81
2023/12/03 08:30:54;;;;;;;0.50;0.50;;;2.00;1.00;;;;;;5043821;28;20217;-82
2023/12/03 08:33:19;;;;;;;0.40;0.40;;;2.40;1.00;;;;;;5045689;28;20206;-82
2023/12/03 08:35:45;;;;;;;0.37;0.37;;;2.20;1.00;;;;;;5051144;28;20688;-82
2023/12/03 08:38:11;;;;;;;0.40;0.40;;;0.70;1.00;;;;;;5038542;28;20174;-82
2023/12/03 08:40:37;;;;;;;0.40;0.40;;;0.40;1.00;;;;;;5038760;28;20206;-81
2023/12/03 08:43:03;;;;;;;0.50;0.50;;;0.40;2.00;;;;;;5039549;28;20480;-81
2023/12/03 08:45:29;;;;;;;0.47;0.47;;;0.40;9.80;;;;;;5057154;28;20225;-81
2023/12/03 08:47:55;;;;;;;0.43;0.43;;;0.90;1.00;;;;;;5057106;28;20179;-81
2023/12/03 08:50:27;;;;;;;0.40;0.40;;;1.20;9.70;;;;;;5038861;28;20258;-82
2023/12/03 08:52:53;;;;;;;0.40;0.40;;;2.60;1.00;;;;;;5057843;28;20179;-80
2023/12/03 08:55:18;;;;;;;0.50;0.50;;;3.50;1.00;;;;;;5054575;28;20649;-81
2023/12/03 08:57:44;;;;;;;0.50;0.50;;;3.50;1.00;;;;;;5049036;28;20166;-81
2023/12/03 09:00:12;;;;;;;0.40;0.40;;;4.30;1.00;;;;;;5039058;28;20207;-81
2023/12/03 09:02:39;;;;;;;0.60;0.60;;;3.70;1.00;;;;;;5056505;28;20183;-80
2023/12/03 09:05:05;;;;;;;0.50;0.50;;;3.30;1.00;;;;;;5054002;28;20186;-82
2023/12/03 09:07:30;;;;;;;0.50;0.50;;;3.60;1.00;;;;;;5045992;28;20172;-80
2023/12/03 09:09:57;;;;;;;0.50;0.50;;;3.60;1.00;;;;;;5045202;28;20218;-82
2023/12/03 09:12:23;;;;;;;0.40;0.40;;;4.80;1.00;;;;;;5045095;28;20175;-82
2023/12/03 09:14:49;;;;;;;0.50;0.50;;;4.90;1.00;;;;;;5046991;28;20225;-81
2023/12/03 09:17:14;;;;;;;0.50;0.50;;;5.20;1.00;;;;;;5041550;28;20203;-82
2023/12/03 09:19:40;;;;;;;0.47;0.47;;;5.20;1.00;;;;;;5051324;28;20183;-82
2023/12/03 09:22:06;;;;;;;0.47;0.47;;;5.50;1.00;;;;;;5058539;28;20273;-83
2023/12/03 09:24:31;;;;;;;0.50;0.50;;;5.30;1.00;;;;;;5050040;28;20171;-80
2023/12/03 09:26:57;;;;;;;0.40;0.40;;;5.20;1.00;;;;;;5046750;28;20195;-80
2023/12/03 09:29:22;;;;;;;0.40;0.40;;;5.00;1.00;;;;;;5049122;28;20748;-84
2023/12/03 09:31:48;;;;;;;0.40;0.40;;;5.20;1.00;;;;;;5060648;28;20206;-85
2023/12/03 09:34:13;;;;;;;0.50;0.50;;;5.50;1.00;;;;;;5058838;28;20189;-83
2023/12/03 09:36:43;;;;;;;0.40;0.40;;;5.60;1.00;;;;;;5041237;28;20221;-83
2023/12/03 09:39:09;;;;;;;0.50;0.50;;;6.10;1.00;;;;;;5060907;28;20199;-86
2023/12/03 09:41:46;;;;;;;0.50;0.50;;;5.50;1.00;;;;;;5041195;28;20172;-88
2023/12/03 09:44:39;;;;;;;0.40;0.40;;;4.60;1.00;;;;;;5060942;28;20212;-82
2023/12/03 09:47:06;;;;;;;0.50;0.50;;;6.00;1.00;;;;;;5060062;28;20202;-82
2023/12/03 09:49:32;;;;;;;0.50;0.50;;;5.60;1.00;;;;;;5061813;28;20206;-83
2023/12/03 09:52:02;;;;;;;0.40;0.40;;;4.60;1.00;;;;;;5061623;28;20175;-84
2023/12/03 09:54:31;;;;;;;0.43;0.43;;;5.60;1.00;;;;;;5043311;28;20171;-84
2023/12/03 09:56:58;;;;;;;0.40;0.40;;;5.50;1.00;;;;;;5059901;28;20191;-83
2023/12/03 09:59:26;;;;;;;0.40;0.40;;;5.60;1.00;;;;;;5060035;28;20182;-82
2023/12/03 10:01:55;;;;;;;0.50;0.50;;;5.00;1.00;;;;;;5048580;28;20278;-84
2023/12/03 10:04:20;;;;;;;0.50;0.50;;;5.10;1.00;;;;;;5043331;28;20172;-87
2023/12/03 10:06:49;;;;;;;0.40;0.40;;;5.60;1.00;;;;;;5051505;28;20241;-83
2023/12/03 10:09:17;;;;;;;0.40;0.40;;;4.50;1.00;;;;;;5054923;28;20221;-83
2023/12/03 10:11:53;;;;;;;0.37;0.37;;;5.40;1.00;;;;;;5059411;28;20221;-83
2023/12/03 10:14:19;;;;;;;0.40;0.40;;;5.40;1.00;;;;;;5060519;28;20175;-86
2023/12/03 10:16:51;;;;;;;0.60;0.60;;;5.90;1.00;;;;;;5051756;28;20263;-83
2023/12/03 10:19:24;;;;;;;0.40;0.40;;;6.10;1.00;;;;;;5044940;28;20180;-83
2023/12/03 10:21:50;;;;;;;0.40;0.40;;;5.90;1.00;;;;;;5045804;28;20178;-87
2023/12/03 10:24:16;;;;;;;0.50;0.50;;;5.70;1.00;;;;;;5049925;28;20271;-85
2023/12/03 10:27:10;;;;;;;0.50;0.50;;;5.70;1.00;;;;;;5030935;28;20222;-84
2023/12/03 10:29:37;;;;;;;0.50;0.50;;;5.30;1.00;;;;;;5044674;28;20234;-86
2023/12/03 10:32:03;;;;;;;0.50;0.50;;;6.40;1.00;;;;;;5042683;28;20176;-84
2023/12/03 10:34:28;;;;;;;0.50;0.50;;;6.60;1.00;;;;;;5038859;28;20178;-82
2023/12/03 10:36:54;;;;;;;0.47;0.47;;;6.40;1.00;;;;;;5034140;28;20195;-83
2023/12/03 10:39:20;;;;;;;0.40;0.40;;;5.70;1.00;;;;;;5052531;28;20270;-86
2023/12/03 10:41:47;;;;;;;0.40;0.40;;;5.80;1.00;;;;;;5048755;28;20172;-83
2023/12/03 10:44:24;;;;;;;0.50;0.50;;;6.30;1.00;;;;;;5028610;28;20709;-85
2023/12/03 10:46:50;;;;;;;0.50;0.50;;;5.30;1.00;;;;;;5029140;28;20215;-82
2023/12/03 10:49:16;;;;;;;0.53;0.53;;;5.30;1.00;;;;;;5043095;28;20203;-83
2023/12/03 10:51:43;;;;;;;0.50;0.50;;;5.80;1.00;;;;;;5050119;28;20206;-83
2023/12/03 10:54:11;;;;;;;0.60;0.60;;;5.80;1.00;;;;;;5039599;28;20172;-82
2023/12/03 10:56:37;;;;;;;0.50;0.50;;;7.00;1.00;;;;;;5039279;28;20196;-82
2023/12/03 10:59:09;;;;;;;0.50;0.50;;;6.20;1.00;;;;;;5038869;28;20214;-83
2023/12/03 11:01:40;;;;;;;0.50;0.50;;;6.70;1.00;;;;;;5038527;28;20183;-83
2023/12/03 11:04:34;;;;;;;0.50;0.50;;;6.60;1.00;;;;;;5045767;28;20210;-83
2023/12/03 11:07:04;;;;;;;0.50;0.50;;;8.00;1.00;;;;;;5050036;28;20199;-82
2023/12/03 11:09:29;;;;;;;0.40;0.40;;;7.80;1.00;;;;;;5055075;28;20222;-80
2023/12/03 11:11:56;;;;;;;0.40;0.40;;;7.70;1.00;;;;;;5069646;28;20191;-82
2023/12/03 11:14:22;;;;;;;0.50;0.50;;;7.90;1.00;;;;;;5046600;28;20438;-83
2023/12/03 11:17:15;;;;;;;0.40;0.40;;;7.20;1.00;;;;;;5061992;28;20198;-85
2023/12/03 11:19:46;;;;;;;0.40;0.40;;;6.80;1.00;;;;;;5059845;28;20416;-82
2023/12/03 11:22:46;;;;;;;0.50;0.50;;;6.40;1.00;;;;;;5048994;28;20203;-83
2023/12/03 11:25:14;;;;;;;0.50;0.50;;;3.70;1.00;;;;;;5048061;28;20180;-85
2023/12/03 11:27:45;;;;;;;0.60;0.60;;;3.00;1.00;;;;;;5039626;28;20223;-84
2023/12/03 11:30:13;;;;;;;0.70;0.70;;;2.80;1.00;;;;;;5020087;28;20236;-84
2023/12/03 11:32:39;;;;;;;0.70;0.70;;;2.50;1.00;;;;;;5030254;28;20188;-82
2023/12/03 11:35:07;;;;;;;0.63;0.63;;;2.30;1.00;;;;;;5028755;28;20184;-83
2023/12/03 11:37:33;;;;;;;0.70;0.70;;;2.20;1.00;;;;;;5043609;28;20188;-85
2023/12/03 11:40:09;;;;;;;0.70;0.70;;;1.80;1.00;;;;;;5039097;28;20539;-84
2023/12/03 11:42:46;;;;;;;0.70;0.70;;;1.80;1.00;;;;;;5032616;28;20173;-83
2023/12/03 11:45:19;;;;;;;0.90;0.90;;;1.50;1.00;;;;;;5048212;28;20676;-83
2023/12/03 11:48:07;;;;;;;0.70;0.70;;;1.90;1.00;;;;;;5026377;28;20191;-83
2023/12/03 11:50:41;;;;;;;0.70;0.70;;;2.10;1.00;;;;;;5018967;28;20211;-84
2023/12/03 11:53:08;;;;;;;0.70;0.70;;;2.20;1.00;;;;;;5024110;28;20196;-82
2023/12/03 11:55:35;;;;;;;0.80;0.80;;;2.20;1.00;;;;;;5018736;28;20207;-83
2023/12/03 11:58:04;;;;;;;0.70;0.70;;;1.80;1.00;;;;;;5023342;28;20191;-83
2023/12/03 12:00:30;;;;;;;0.80;0.80;;;1.60;1.00;;;;;;5032876;28;20188;-82
2023/12/03 12:02:56;;;;;;;0.80;0.80;;;1.50;1.00;;;;;;5038989;28;20179;-83
2023/12/03 12:05:21;;;;;;;0.87;0.87;;;1.50;1.00;;;;;;5039642;28;20175;-83
2023/12/03 12:08:01;;;;;;;0.90;0.90;;;2.10;1.00;;;;;;5039752;28;20303;-84
2023/12/03 12:10:31;;;;;;;0.80;0.80;;;1.90;1.00;;;;;;5040235;28;20314;-83
2023/12/03 12:13:01;;;;;;;0.90;0.90;;;1.50;1.00;;;;;;5048876;28;20266;-83
2023/12/03 12:15:26;;;;;;;0.70;0.70;;;1.30;1.00;;;;;;5059710;28;20203;-83
2023/12/03 12:17:52;;;;;;;0.80;0.80;;;1.20;1.00;;;;;;5040467;28;20233;-86
2023/12/03 12:20:29;;;;;;;0.80;0.80;;;1.50;99.90;;;;;;5037117;28;20211;-84
2023/12/03 12:22:56;;;;;;;0.80;0.80;;;1.70;1.00;;;;;;5042729;28;20185;-85
2023/12/03 12:25:25;;;;;;;0.80;0.80;;;2.20;1.00;;;;;;5063179;28;20172;-83
2023/12/03 12:27:51;;;;;;;0.70;0.70;;;2.20;1.00;;;;;;5073090;28;20162;-85
2023/12/03 12:30:29;;;;;;;0.73;0.73;;;1.80;1.00;;;;;;5067841;28;20202;-83
2023/12/03 12:32:58;;;;;;;0.70;0.70;;;1.90;1.00;;;;;;5077272;28;20179;-84
2023/12/03 12:35:24;;;;;;;0.80;0.80;;;2.80;1.00;;;;;;5036959;28;20701;-83
2023/12/03 12:38:03;;;;;;;0.80;0.80;;;3.30;1.00;;;;;;5026759;28;20173;-83
2023/12/03 12:40:30;;;;;;;0.67;0.67;;;5.40;1.00;;;;;;5027101;28;20257;-84
2023/12/03 12:43:14;;;;;;;0.80;0.80;;;6.90;1.00;;;;;;5035505;28;20184;-83
2023/12/03 12:45:40;;;;;;;0.70;0.70;;;7.70;1.00;;;;;;5041696;28;20219;-84
2023/12/03 12:48:22;;;;;;;0.50;0.50;;;7.30;1.00;;;;;;5023528;28;20594;-83
2023/12/03 12:50:47;;;;;;;0.60;0.60;;;7.50;1.00;;;;;;5036169;28;20587;-83
2023/12/03 12:53:13;;;;;;;0.60;0.60;;;8.20;1.00;;;;;;5036243;28;20176;-84
2023/12/03 12:55:39;;;;;;;0.50;0.50;;;8.60;1.00;;;;;;5045718;28;20608;-83